Time;durP1;ratioP1;P1;durP2;ratioP2;P2;SDS_P1;SDS_P2;PMS_P1;PMS_P2;Temp;Humidity;BMP_temperature;BMP_pressure;BME280_temperature;BME280_humidity;BME280_pressure;Samples;Min_cycle;Max_cycle;Signal;HPM_P1;HPM_P2
2022/12/07 00:01:24;;;;;;;4.40;2.90;;;8.10;99.90;;;;;;4987553;28;20023;-85
2022/12/07 00:03:51;;;;;;;4.72;2.97;;;8.00;99.90;;;;;;5015795;28;21896;-84
2022/12/07 00:06:17;;;;;;;4.78;2.90;;;8.00;99.90;;;;;;4999136;28;20219;-84
2022/12/07 00:08:44;;;;;;;5.28;3.05;;;7.90;99.90;;;;;;5003612;28;20052;-84
2022/12/07 00:11:16;;;;;;;5.20;3.40;;;7.80;99.90;;;;;;4988070;28;20602;-85
2022/12/07 00:13:41;;;;;;;4.60;3.07;;;7.80;99.90;;;;;;4995090;28;20028;-85
2022/12/07 00:16:10;;;;;;;4.88;3.10;;;7.70;99.90;;;;;;4990809;28;20222;-85
2022/12/07 00:18:36;;;;;;;5.25;3.30;;;7.70;99.90;;;;;;4972110;28;20033;-85
2022/12/07 00:21:13;;;;;;;6.38;3.50;;;7.60;99.90;;;;;;4984041;28;20033;-85
2022/12/07 00:23:39;;;;;;;6.27;3.57;;;7.60;99.90;;;;;;4997939;28;20143;-85
2022/12/07 00:26:33;;;;;;;5.72;3.25;;;7.50;99.90;;;;;;4989404;28;20035;-85
2022/12/07 00:29:06;;;;;;;5.65;3.33;;;7.50;99.90;;;;;;5013935;28;20070;-85
2022/12/07 00:31:38;;;;;;;5.72;3.50;;;7.50;99.90;;;;;;4990504;28;20037;-85
2022/12/07 00:34:05;;;;;;;5.95;3.50;;;7.40;99.90;;;;;;4972095;28;20030;-85
2022/12/07 00:36:31;;;;;;;7.27;3.40;;;7.40;99.90;;;;;;5017907;28;20059;-85
2022/12/07 00:39:00;;;;;;;5.10;3.45;;;7.40;99.90;;;;;;4991002;28;20025;-84
2022/12/07 00:41:30;;;;;;;5.28;3.13;;;7.40;99.90;;;;;;4994853;28;20017;-85
2022/12/07 00:43:56;;;;;;;6.47;3.80;;;7.30;99.90;;;;;;4988212;28;20025;-85
2022/12/07 00:46:23;;;;;;;7.07;3.80;;;7.30;99.90;;;;;;4980911;28;20271;-85
2022/12/07 00:48:50;;;;;;;5.70;3.42;;;7.30;99.90;;;;;;4972964;28;20034;-84
2022/12/07 00:51:18;;;;;;;5.90;3.35;;;7.20;99.90;;;;;;5007750;28;20417;-85
2022/12/07 00:53:44;;;;;;;6.68;3.67;;;7.20;99.90;;;;;;4999465;28;20291;-85
2022/12/07 00:56:17;;;;;;;6.63;3.80;;;7.20;99.90;;;;;;5005156;28;20301;-85
2022/12/07 00:58:42;;;;;;;5.90;3.50;;;7.20;99.90;;;;;;4996262;28;20029;-85
2022/12/07 01:01:10;;;;;;;4.97;3.22;;;7.10;99.90;;;;;;4999063;28;20029;-85
2022/12/07 01:03:36;;;;;;;5.85;3.53;;;7.10;99.90;;;;;;4967704;28;20155;-85
2022/12/07 01:06:03;;;;;;;6.35;3.85;;;7.10;99.90;;;;;;5008659;28;20030;-85
2022/12/07 01:08:29;;;;;;;6.20;3.70;;;7.00;99.90;;;;;;5022399;28;20285;-84
2022/12/07 01:11:04;;;;;;;5.40;3.50;;;7.00;99.90;;;;;;5008835;28;20389;-85
2022/12/07 01:13:31;;;;;;;6.22;3.65;;;7.00;99.90;;;;;;4991721;28;20383;-85
2022/12/07 01:15:59;;;;;;;7.35;4.20;;;7.00;99.90;;;;;;5022788;28;20418;-85
2022/12/07 01:18:30;;;;;;;8.35;3.90;;;7.10;99.90;;;;;;4954823;28;20405;-85
2022/12/07 01:21:00;;;;;;;6.97;3.90;;;7.10;99.90;;;;;;5025341;28;20029;-85
2022/12/07 01:23:25;;;;;;;6.83;4.20;;;7.20;99.90;;;;;;5010494;28;20033;-85
2022/12/07 01:25:56;;;;;;;7.40;4.30;;;7.20;99.90;;;;;;4981069;28;20017;-85
2022/12/07 01:28:22;;;;;;;6.53;3.95;;;7.20;99.90;;;;;;5024084;28;20609;-85
2022/12/07 01:31:06;;;;;;;6.23;3.63;;;7.20;99.90;;;;;;5026815;28;20029;-85
2022/12/07 01:33:35;;;;;;;5.95;3.53;;;7.30;99.90;;;;;;5001209;28;20076;-85
2022/12/07 01:36:05;;;;;;;5.68;3.75;;;7.30;99.90;;;;;;4984000;28;20091;-85
2022/12/07 01:38:32;;;;;;;6.32;3.72;;;7.30;99.90;;;;;;5008476;28;20484;-85
2022/12/07 01:41:00;;;;;;;5.57;3.33;;;7.30;99.90;;;;;;4981388;28;20437;-85
2022/12/07 01:43:28;;;;;;;7.43;3.80;;;7.40;99.90;;;;;;5004013;28;20390;-85
2022/12/07 01:45:55;;;;;;;7.43;4.28;;;7.40;99.90;;;;;;5007147;28;20477;-85
2022/12/07 01:48:29;;;;;;;7.15;4.50;;;7.40;99.90;;;;;;5011782;28;20481;-85
2022/12/07 01:51:00;;;;;;;7.30;4.20;;;7.50;99.90;;;;;;4987204;28;20772;-85
2022/12/07 01:53:29;;;;;;;6.30;4.05;;;7.50;99.90;;;;;;4985395;28;20371;-85
2022/12/07 01:55:57;;;;;;;6.60;3.63;;;7.50;99.90;;;;;;4998363;28;20594;-85
2022/12/07 01:58:24;;;;;;;5.78;3.95;;;7.50;99.90;;;;;;5005163;28;20662;-85
2022/12/07 02:00:49;;;;;;;6.18;3.90;;;7.50;99.90;;;;;;4980620;28;20028;-85
2022/12/07 02:03:28;;;;;;;5.55;3.65;;;7.40;99.90;;;;;;5011683;28;20025;-85
2022/12/07 02:05:56;;;;;;;6.77;3.90;;;7.40;99.90;;;;;;4950665;28;20638;-85
2022/12/07 02:08:22;;;;;;;4.68;3.17;;;7.30;99.90;;;;;;5002086;28;20021;-85
2022/12/07 02:10:47;;;;;;;6.35;3.58;;;7.30;99.90;;;;;;4991008;28;23275;-85
2022/12/07 02:13:17;;;;;;;5.67;3.50;;;7.20;99.90;;;;;;5029239;28;20056;-85
2022/12/07 02:16:04;;;;;;;5.33;3.13;;;7.20;99.90;;;;;;4980363;28;20291;-85
2022/12/07 02:18:51;;;;;;;5.63;3.10;;;7.10;99.90;;;;;;5013165;28;20037;-85
2022/12/07 02:21:47;;;;;;;6.07;3.70;;;7.10;99.90;;;;;;4969409;28;20657;-85
2022/12/07 02:24:38;;;;;;;5.97;3.70;;;7.10;99.90;;;;;;4993645;28;20717;-85
2022/12/07 02:27:45;;;;;;;7.63;3.67;;;7.10;99.90;;;;;;4998896;28;20059;-85
2022/12/07 02:30:19;;;;;;;8.10;4.10;;;7.10;99.90;;;;;;4958022;28;20413;-85
2022/12/07 02:33:00;;;;;;;6.50;3.58;;;7.10;99.90;;;;;;5005275;28;20257;-85
2022/12/07 02:35:47;;;;;;;6.68;4.18;;;7.10;99.90;;;;;;4983207;28;20352;-85
2022/12/07 02:38:25;;;;;;;6.30;3.80;;;7.20;99.90;;;;;;4976731;28;20257;-85
2022/12/07 02:40:55;;;;;;;6.28;3.92;;;7.10;99.90;;;;;;5020569;28;20094;-85
2022/12/07 02:43:24;;;;;;;6.83;3.63;;;7.10;99.90;;;;;;5011809;28;20296;-85
2022/12/07 02:45:54;;;;;;;7.18;4.25;;;7.10;99.90;;;;;;5003804;28;20033;-85
2022/12/07 02:48:20;;;;;;;6.13;3.70;;;7.10;99.90;;;;;;4991355;28;21001;-85
2022/12/07 02:50:51;;;;;;;6.22;3.58;;;7.10;99.90;;;;;;4979313;28;20017;-85
2022/12/07 02:53:41;;;;;;;6.75;3.88;;;7.10;99.90;;;;;;4965608;28;20397;-85
2022/12/07 02:56:41;;;;;;;6.27;3.50;;;7.20;99.90;;;;;;5010679;28;20022;-85
2022/12/07 02:59:31;;;;;;;7.97;3.95;;;7.20;99.90;;;;;;4984714;28;20130;-85
2022/12/07 03:02:15;;;;;;;5.95;3.80;;;7.20;99.90;;;;;;4991064;28;20029;-85
2022/12/07 03:05:11;;;;;;;6.57;3.60;;;7.20;99.90;;;;;;5009703;28;20120;-85
2022/12/07 03:07:55;;;;;;;6.38;3.75;;;7.20;99.90;;;;;;4969042;28;20501;-85
2022/12/07 03:10:40;;;;;;;7.03;3.73;;;7.20;99.90;;;;;;5005482;28;20638;-85
2022/12/07 03:13:05;;;;;;;6.25;4.00;;;7.20;99.90;;;;;;4974637;28;20237;-85
2022/12/07 03:15:44;;;;;;;5.90;3.60;;;7.20;99.90;;;;;;5006690;28;20042;-85
2022/12/07 03:18:13;;;;;;;7.10;3.70;;;7.20;99.90;;;;;;5020068;28;20875;-84
2022/12/07 03:20:40;;;;;;;6.60;3.83;;;7.20;99.90;;;;;;4999555;28;20108;-84
2022/12/07 03:23:09;;;;;;;6.63;3.63;;;7.30;99.90;;;;;;4978865;28;20946;-85
2022/12/07 03:25:42;;;;;;;6.25;3.60;;;7.30;99.90;;;;;;5008348;28;20593;-85
2022/12/07 03:28:09;;;;;;;6.82;3.97;;;7.30;99.90;;;;;;4992345;28;20472;-85
2022/12/07 03:31:04;;;;;;;5.90;3.50;;;7.30;99.90;;;;;;5031169;28;20100;-85
2022/12/07 03:33:44;;;;;;;5.45;3.58;;;7.30;99.90;;;;;;5030266;28;20041;-84
2022/12/07 03:36:22;;;;;;;7.47;3.63;;;7.30;99.90;;;;;;4986500;28;20179;-85
2022/12/07 03:39:19;;;;;;;5.85;3.35;;;7.30;99.90;;;;;;4996169;28;20029;-85
2022/12/07 03:41:45;;;;;;;5.85;3.40;;;7.30;99.90;;;;;;5018178;28;20120;-84
2022/12/07 03:44:13;;;;;;;6.27;3.40;;;7.30;99.90;;;;;;4990379;28;20037;-85
2022/12/07 03:47:03;;;;;;;5.68;3.10;;;7.30;99.90;;;;;;5031162;28;20475;-84
2022/12/07 03:49:32;;;;;;;5.95;3.25;;;7.30;99.90;;;;;;5018360;28;20068;-84
2022/12/07 03:52:02;;;;;;;5.10;3.30;;;7.20;99.90;;;;;;5002998;28;20025;-85
2022/12/07 03:54:51;;;;;;;5.55;3.53;;;7.20;99.90;;;;;;4992578;28;20049;-85
2022/12/07 03:57:18;;;;;;;4.47;2.87;;;7.20;99.90;;;;;;5017965;28;20032;-84
2022/12/07 03:59:45;;;;;;;4.68;2.83;;;7.10;99.90;;;;;;5007612;28;20033;-84
2022/12/07 04:02:13;;;;;;;4.88;2.70;;;7.00;99.90;;;;;;5015768;28;20225;-84
2022/12/07 04:04:39;;;;;;;5.00;2.80;;;7.00;99.90;;;;;;5025229;28;20048;-84
2022/12/07 04:07:04;;;;;;;4.65;2.78;;;6.90;99.90;;;;;;4984715;28;20350;-84
2022/12/07 04:09:30;;;;;;;5.40;2.93;;;6.90;99.90;;;;;;4999470;28;20520;-85
2022/12/07 04:11:56;;;;;;;4.13;2.50;;;6.90;99.90;;;;;;5009049;28;20060;-84
2022/12/07 04:14:21;;;;;;;4.83;2.70;;;6.80;99.90;;;;;;5002957;28;20291;-84
2022/12/07 04:16:53;;;;;;;4.90;2.63;;;6.70;99.90;;;;;;5011086;28;20470;-84
2022/12/07 04:19:21;;;;;;;4.00;2.58;;;6.70;99.90;;;;;;5029269;28;20665;-85
2022/12/07 04:21:47;;;;;;;4.40;2.80;;;6.60;99.90;;;;;;5035680;28;20028;-85
2022/12/07 04:24:15;;;;;;;5.47;3.00;;;6.60;99.90;;;;;;5005137;28;20099;-85
2022/12/07 04:26:41;;;;;;;4.63;2.92;;;6.50;99.90;;;;;;4988567;28;20559;-85
2022/12/07 04:29:07;;;;;;;5.15;2.85;;;6.50;99.90;;;;;;5008532;28;20177;-85
2022/12/07 04:31:33;;;;;;;4.38;2.72;;;6.50;99.90;;;;;;5018980;28;20052;-85
2022/12/07 04:33:59;;;;;;;6.30;2.90;;;6.50;99.90;;;;;;4999734;28;20057;-85
2022/12/07 04:36:24;;;;;;;5.10;3.10;;;6.40;99.90;;;;;;5000686;28;20040;-85
2022/12/07 04:38:53;;;;;;;4.90;2.80;;;6.40;99.90;;;;;;4989025;28;20067;-85
2022/12/07 04:41:26;;;;;;;4.47;2.65;;;6.40;99.90;;;;;;4989422;28;20025;-85
2022/12/07 04:44:14;;;;;;;4.60;2.63;;;6.40;99.90;;;;;;5019154;28;20018;-85
2022/12/07 04:46:40;;;;;;;4.93;2.80;;;6.30;99.90;;;;;;4986452;28;20057;-84
2022/12/07 04:49:05;;;;;;;4.20;2.80;;;6.30;99.90;;;;;;4993349;28;20151;-84
2022/12/07 04:51:32;;;;;;;5.47;2.60;;;6.20;99.90;;;;;;5006221;28;20853;-85
2022/12/07 04:53:58;;;;;;;4.18;2.50;;;6.20;99.90;;;;;;4995748;28;20052;-85
2022/12/07 04:56:24;;;;;;;6.05;2.60;;;6.20;99.90;;;;;;4979303;28;20556;-85
2022/12/07 04:58:52;;;;;;;4.35;2.78;;;6.10;99.90;;;;;;5011742;28;20022;-85
2022/12/07 05:01:18;;;;;;;4.17;2.80;;;6.10;99.90;;;;;;5002738;28;20123;-85
2022/12/07 05:03:44;;;;;;;4.97;2.50;;;6.10;99.90;;;;;;4973349;28;20060;-85
2022/12/07 05:06:10;;;;;;;4.53;2.70;;;6.10;99.90;;;;;;4990502;28;20449;-85
2022/12/07 05:08:36;;;;;;;4.28;2.67;;;6.20;99.90;;;;;;4999537;28;20391;-84
2022/12/07 05:11:03;;;;;;;3.50;2.17;;;6.20;99.90;;;;;;5012912;28;20036;-84
2022/12/07 05:13:29;;;;;;;6.03;2.95;;;6.20;99.90;;;;;;4966001;28;20005;-85
2022/12/07 05:15:55;;;;;;;3.90;2.35;;;6.20;99.90;;;;;;5010672;28;20493;-84
2022/12/07 05:18:20;;;;;;;4.93;3.00;;;6.20;99.90;;;;;;4992843;28;20022;-85
2022/12/07 05:20:46;;;;;;;4.35;2.70;;;6.30;99.90;;;;;;5023594;28;20032;-85
2022/12/07 05:23:12;;;;;;;5.45;2.78;;;6.30;99.90;;;;;;4992150;28;20509;-84
2022/12/07 05:25:38;;;;;;;4.18;2.63;;;6.30;99.90;;;;;;4985501;28;20036;-85
2022/12/07 05:28:04;;;;;;;4.67;2.90;;;6.40;99.90;;;;;;4956014;28;20286;-85
2022/12/07 05:30:31;;;;;;;4.53;2.50;;;6.40;99.90;;;;;;4990114;28;20048;-85
2022/12/07 05:32:56;;;;;;;4.07;2.60;;;6.40;99.90;;;;;;4981088;28;20032;-85
2022/12/07 05:35:22;;;;;;;5.27;2.67;;;6.40;99.90;;;;;;4991685;28;20041;-85
2022/12/07 05:37:48;;;;;;;4.05;2.72;;;6.40;99.90;;;;;;5006621;28;20139;-85
2022/12/07 05:40:15;;;;;;;5.45;2.95;;;6.40;99.90;;;;;;4978063;28;20031;-84
2022/12/07 05:42:41;;;;;;;6.00;2.92;;;6.40;99.90;;;;;;4984116;28;20561;-84
2022/12/07 05:45:08;;;;;;;5.33;3.17;;;6.50;99.90;;;;;;4983356;28;20032;-85
2022/12/07 05:47:34;;;;;;;5.40;2.92;;;6.40;99.90;;;;;;4980289;28;20083;-84
2022/12/07 05:50:00;;;;;;;4.77;2.60;;;6.40;99.90;;;;;;4997269;28;20013;-85
2022/12/07 05:52:25;;;;;;;4.55;2.70;;;6.40;99.90;;;;;;4991432;28;20032;-85
2022/12/07 05:54:52;;;;;;;3.72;2.70;;;6.40;99.90;;;;;;5001104;28;20462;-85
2022/12/07 05:57:18;;;;;;;4.30;2.80;;;6.40;99.90;;;;;;5003624;28;20036;-85
2022/12/07 05:59:44;;;;;;;4.80;2.70;;;6.50;99.90;;;;;;4959816;28;20029;-84
2022/12/07 06:02:13;;;;;;;4.10;2.72;;;6.50;99.90;;;;;;4987601;28;20558;-85
2022/12/07 06:04:41;;;;;;;3.85;2.72;;;6.50;99.90;;;;;;4984674;28;20045;-85
2022/12/07 06:07:08;;;;;;;3.63;2.73;;;6.50;99.90;;;;;;5014257;28;20362;-85
2022/12/07 06:09:35;;;;;;;4.68;3.00;;;6.50;99.90;;;;;;4973183;28;20720;-85
2022/12/07 06:14:45;;;;;;;7.05;3.40;;;6.60;99.90;;;;;;4981990;28;20060;-85
2022/12/07 06:17:12;;;;;;;4.97;2.80;;;6.50;99.90;;;;;;4980448;28;20536;-85
2022/12/07 06:19:38;;;;;;;5.30;3.20;;;6.60;99.90;;;;;;4996055;28;20862;-85
2022/12/07 06:22:04;;;;;;;5.07;3.00;;;6.60;99.90;;;;;;4984301;28;20017;-85
2022/12/07 06:24:31;;;;;;;5.03;3.25;;;6.60;99.90;;;;;;4970996;28;20029;-85
2022/12/07 06:26:57;;;;;;;4.43;2.50;;;6.60;99.90;;;;;;4996158;28;20250;-85
2022/12/07 06:29:23;;;;;;;5.38;3.20;;;6.50;99.90;;;;;;4976795;28;20763;-85
2022/12/07 06:31:49;;;;;;;4.85;2.60;;;6.50;99.90;;;;;;5001927;28;20653;-85
2022/12/07 06:34:22;;;;;;;6.27;2.83;;;6.50;99.90;;;;;;5002481;28;20020;-84
2022/12/07 06:36:51;;;;;;;4.95;2.85;;;6.50;99.90;;;;;;5001222;28;20029;-85
2022/12/07 06:39:18;;;;;;;4.57;2.80;;;6.40;99.90;;;;;;4978935;28;20029;-84
2022/12/07 06:41:44;;;;;;;4.72;2.80;;;6.40;99.90;;;;;;4974640;28;20361;-85
2022/12/07 06:44:10;;;;;;;5.47;2.70;;;6.40;99.90;;;;;;4997392;28;20016;-85
2022/12/07 06:46:36;;;;;;;5.60;2.80;;;6.40;99.90;;;;;;4954133;28;20032;-84
2022/12/07 06:49:03;;;;;;;5.93;3.28;;;6.40;99.90;;;;;;4992320;28;20025;-84
2022/12/07 06:51:29;;;;;;;3.92;2.72;;;6.40;99.90;;;;;;5009794;28;20082;-85
2022/12/07 06:53:55;;;;;;;3.83;2.33;;;6.40;99.90;;;;;;4988642;28;20024;-85
2022/12/07 06:56:22;;;;;;;3.80;2.22;;;6.50;99.90;;;;;;4973250;28;20037;-85
2022/12/07 06:58:48;;;;;;;3.78;2.50;;;6.50;99.90;;;;;;4962935;28;20017;-85
2022/12/07 07:01:16;;;;;;;4.35;2.40;;;6.50;99.90;;;;;;4960449;28;20036;-84
2022/12/07 07:03:43;;;;;;;5.43;2.70;;;6.60;99.90;;;;;;4990182;28;20020;-85
2022/12/07 07:06:09;;;;;;;3.63;2.30;;;6.50;99.90;;;;;;4998565;28;20099;-85
2022/12/07 07:08:36;;;;;;;5.20;2.47;;;6.60;99.90;;;;;;4978081;28;20731;-85
2022/12/07 07:11:02;;;;;;;5.88;2.78;;;6.70;99.90;;;;;;4959007;28;21852;-84
2022/12/07 07:13:28;;;;;;;3.70;2.40;;;6.70;99.90;;;;;;4995549;28;20686;-85
2022/12/07 07:15:54;;;;;;;4.57;2.15;;;6.70;99.90;;;;;;4968142;28;20025;-85
2022/12/07 07:18:19;;;;;;;4.10;2.38;;;6.70;99.90;;;;;;4988149;28;20017;-85
2022/12/07 07:20:45;;;;;;;3.90;2.30;;;6.70;99.90;;;;;;5007476;28;20071;-85
2022/12/07 07:23:11;;;;;;;5.03;2.33;;;6.70;99.90;;;;;;4970281;28;20654;-85
2022/12/07 07:25:37;;;;;;;4.10;2.40;;;6.70;99.90;;;;;;4993095;28;20029;-85
2022/12/07 07:28:03;;;;;;;3.65;2.30;;;6.60;99.90;;;;;;4985954;28;20033;-85
2022/12/07 07:30:29;;;;;;;3.42;2.10;;;6.60;99.90;;;;;;4994831;28;20026;-85
2022/12/07 07:32:59;;;;;;;3.37;1.90;;;6.60;99.90;;;;;;4978149;28;20832;-85
2022/12/07 07:35:25;;;;;;;4.47;2.30;;;6.50;99.90;;;;;;4991146;28;20021;-85
2022/12/07 07:37:51;;;;;;;15.43;6.13;;;6.50;99.90;;;;;;4965861;28;20031;-85
2022/12/07 07:40:17;;;;;;;12.80;4.83;;;6.40;99.90;;;;;;4980390;28;20017;-85
2022/12/07 07:42:43;;;;;;;10.52;4.13;;;6.30;99.90;;;;;;4990762;28;20108;-85
2022/12/07 07:45:09;;;;;;;9.13;3.67;;;6.30;99.90;;;;;;4995226;28;20697;-85
2022/12/07 07:47:35;;;;;;;6.15;2.83;;;6.20;99.90;;;;;;4964996;28;20373;-85
2022/12/07 07:50:00;;;;;;;8.18;3.63;;;6.20;99.90;;;;;;5020592;28;20552;-85
2022/12/07 07:52:26;;;;;;;10.43;4.50;;;6.10;99.90;;;;;;4985002;28;20962;-85
2022/12/07 07:54:52;;;;;;;8.52;4.00;;;6.00;99.90;;;;;;4998650;28;20023;-85
2022/12/07 07:57:18;;;;;;;9.18;4.30;;;6.00;99.90;;;;;;4980894;28;20623;-84
2022/12/07 07:59:44;;;;;;;6.37;3.13;;;6.00;99.90;;;;;;4990688;28;20131;-85
2022/12/07 08:02:15;;;;;;;6.47;3.22;;;6.00;99.90;;;;;;4948775;28;26508;-85
2022/12/07 08:04:41;;;;;;;4.60;2.70;;;5.90;99.90;;;;;;5011264;28;20041;-84
2022/12/07 08:07:06;;;;;;;4.88;2.92;;;5.90;99.90;;;;;;4966373;28;20033;-85
2022/12/07 08:09:32;;;;;;;5.72;2.65;;;5.90;99.90;;;;;;4998313;28;20033;-85
2022/12/07 08:11:58;;;;;;;4.47;2.60;;;5.90;99.90;;;;;;4994086;28;20034;-85
2022/12/07 08:14:24;;;;;;;5.03;2.87;;;5.90;99.90;;;;;;4973186;28;20095;-85
2022/12/07 08:16:50;;;;;;;5.50;2.58;;;5.90;99.90;;;;;;4989101;28;23367;-85
2022/12/07 08:19:16;;;;;;;6.75;3.15;;;5.90;99.90;;;;;;4979434;28;20022;-85
2022/12/07 08:21:41;;;;;;;5.27;2.80;;;5.90;99.90;;;;;;4980066;28;20025;-85
2022/12/07 08:24:07;;;;;;;5.32;2.88;;;6.00;99.90;;;;;;5002380;28;20478;-84
2022/12/07 08:26:33;;;;;;;4.68;2.85;;;6.00;99.90;;;;;;4995236;28;20151;-85
2022/12/07 08:28:59;;;;;;;5.03;2.83;;;6.00;99.90;;;;;;5007623;28;20108;-85
2022/12/07 08:31:27;;;;;;;5.30;3.13;;;6.00;99.90;;;;;;4990706;28;20556;-85
2022/12/07 08:33:53;;;;;;;4.70;3.00;;;6.10;99.90;;;;;;4977150;28;20024;-84
2022/12/07 08:36:19;;;;;;;4.33;2.80;;;6.20;99.90;;;;;;4997344;28;20067;-84
2022/12/07 08:38:44;;;;;;;4.32;2.75;;;6.30;99.90;;;;;;4990548;28;20328;-84
2022/12/07 08:41:10;;;;;;;5.67;3.13;;;6.30;99.90;;;;;;4980980;28;20156;-84
2022/12/07 08:43:36;;;;;;;5.15;2.90;;;6.50;99.90;;;;;;4999018;28;20489;-84
2022/12/07 08:46:08;;;;;;;6.32;3.40;;;6.50;99.90;;;;;;5004180;28;20527;-84
2022/12/07 08:48:38;;;;;;;5.15;2.60;;;6.60;99.90;;;;;;4958217;28;20387;-84
2022/12/07 08:51:04;;;;;;;5.87;3.30;;;6.70;99.90;;;;;;4978472;28;20124;-84
2022/12/07 08:53:31;;;;;;;4.35;3.00;;;6.70;99.90;;;;;;4992355;28;20034;-84
2022/12/07 08:55:58;;;;;;;5.05;3.00;;;6.70;99.90;;;;;;4981830;28;20508;-84
2022/12/07 08:58:23;;;;;;;6.50;3.30;;;6.80;99.90;;;;;;4989109;28;20537;-85
2022/12/07 09:00:50;;;;;;;5.45;3.10;;;6.90;99.90;;;;;;5013081;28;20480;-85
2022/12/07 09:03:16;;;;;;;4.67;2.73;;;7.00;99.90;;;;;;4967858;28;20513;-84
2022/12/07 09:05:42;;;;;;;6.50;2.80;;;7.00;99.90;;;;;;4966054;28;20100;-84
2022/12/07 09:08:08;;;;;;;6.18;3.08;;;7.20;99.90;;;;;;4993782;28;20014;-85
2022/12/07 09:10:33;;;;;;;5.05;2.97;;;7.30;99.90;;;;;;4979792;28;20146;-85
2022/12/07 09:13:02;;;;;;;5.83;2.83;;;7.40;99.90;;;;;;4975395;28;20882;-85
2022/12/07 09:15:29;;;;;;;6.00;2.65;;;7.60;99.90;;;;;;5007512;28;20041;-85
2022/12/07 09:17:55;;;;;;;3.80;2.50;;;7.70;99.90;;;;;;4997276;28;20079;-85
2022/12/07 09:20:21;;;;;;;4.80;3.03;;;7.90;99.90;;;;;;4979350;28;20022;-85
2022/12/07 09:22:47;;;;;;;4.30;2.90;;;8.10;99.90;;;;;;4992991;28;20108;-85
2022/12/07 09:25:13;;;;;;;5.55;3.00;;;8.30;99.90;;;;;;4978891;28;20385;-85
2022/12/07 09:27:39;;;;;;;4.37;2.70;;;8.40;99.90;;;;;;4984657;28;20017;-85
2022/12/07 09:30:06;;;;;;;3.67;2.55;;;8.60;99.90;;;;;;4988361;28;20029;-84
2022/12/07 09:32:31;;;;;;;5.05;2.67;;;8.80;99.90;;;;;;5003346;28;20104;-84
2022/12/07 09:34:57;;;;;;;4.20;2.90;;;8.90;99.90;;;;;;4966927;28;20356;-85
2022/12/07 09:37:23;;;;;;;4.17;2.70;;;9.00;99.90;;;;;;5015630;28;20112;-84
2022/12/07 09:39:49;;;;;;;4.75;2.88;;;9.10;99.90;;;;;;4982303;28;21119;-85
2022/12/07 09:42:35;;;;;;;4.53;2.50;;;9.10;99.90;;;;;;5004980;28;20036;-85
2022/12/07 09:45:02;;;;;;;3.10;2.10;;;9.10;99.90;;;;;;4994846;28;20654;-85
2022/12/07 09:47:28;;;;;;;5.68;2.80;;;9.10;99.90;;;;;;5002932;28;20389;-85
2022/12/07 09:50:05;;;;;;;3.83;2.30;;;9.00;99.90;;;;;;4995476;28;20496;-84
2022/12/07 09:52:31;;;;;;;4.57;2.60;;;9.10;99.90;;;;;;4981021;28;20044;-85
2022/12/07 09:54:57;;;;;;;3.95;2.42;;;9.00;99.90;;;;;;4997549;28;20017;-85
2022/12/07 09:57:34;;;;;;;3.80;2.17;;;9.00;99.90;;;;;;5000846;28;20049;-85
2022/12/07 10:00:04;;;;;;;3.53;2.07;;;9.00;99.90;;;;;;4992761;28;20291;-85
2022/12/07 10:02:41;;;;;;;3.90;2.53;;;9.10;99.90;;;;;;4968194;28;20666;-85
2022/12/07 10:05:19;;;;;;;4.38;2.47;;;9.10;99.90;;;;;;4991372;28;20106;-84
2022/12/07 10:07:45;;;;;;;4.63;2.30;;;9.10;99.90;;;;;;4985259;28;20398;-84
2022/12/07 10:10:19;;;;;;;3.30;2.17;;;9.20;99.90;;;;;;4994649;28;20052;-84
2022/12/07 10:12:57;;;;;;;3.00;2.05;;;9.30;99.90;;;;;;4993395;28;20658;-84
2022/12/07 10:15:23;;;;;;;5.05;2.15;;;9.30;99.90;;;;;;4993835;28;20033;-84
2022/12/07 10:17:50;;;;;;;4.57;2.08;;;9.30;99.90;;;;;;4972262;28;20250;-84
2022/12/07 10:20:20;;;;;;;2.93;1.80;;;9.40;99.90;;;;;;5004817;28;20025;-84
2022/12/07 10:23:13;;;;;;;3.92;2.00;;;9.40;99.90;;;;;;4996338;28;20869;-85
2022/12/07 10:25:40;;;;;;;4.00;2.10;;;9.50;99.90;;;;;;5002399;28;20162;-84
2022/12/07 10:28:17;;;;;;;3.30;2.20;;;9.60;99.90;;;;;;4981452;28;20025;-84
2022/12/07 10:31:04;;;;;;;3.97;2.35;;;9.60;99.90;;;;;;4994253;28;20274;-84
2022/12/07 10:33:34;;;;;;;3.00;2.03;;;9.60;99.90;;;;;;4974070;28;20389;-84
2022/12/07 10:36:15;;;;;;;4.05;1.92;;;9.60;99.90;;;;;;5009540;28;20792;-85
2022/12/07 10:38:46;;;;;;;3.33;1.95;;;9.70;99.90;;;;;;4985033;28;20620;-84
2022/12/07 10:41:12;;;;;;;4.53;2.13;;;9.70;99.90;;;;;;5001237;28;20022;-84
2022/12/07 10:43:51;;;;;;;3.90;1.77;;;9.70;99.90;;;;;;4992508;28;20033;-84
2022/12/07 10:46:50;;;;;;;3.67;1.80;;;9.70;99.90;;;;;;4986005;28;20036;-84
2022/12/07 10:49:37;;;;;;;2.63;1.58;;;9.70;99.90;;;;;;4971001;28;20025;-85
2022/12/07 10:52:29;;;;;;;4.13;2.05;;;9.70;99.90;;;;;;5015042;28;20386;-84
2022/12/07 10:55:10;;;;;;;2.67;1.43;;;9.70;99.90;;;;;;4962669;28;20086;-84
2022/12/07 10:57:47;;;;;;;2.92;1.73;;;9.70;99.90;;;;;;4989449;28;20269;-84
2022/12/07 11:00:22;;;;;;;4.45;1.70;;;9.70;99.90;;;;;;4990815;28;20030;-84
2022/12/07 11:03:06;;;;;;;3.13;1.50;;;9.70;99.90;;;;;;4990241;28;20193;-84
2022/12/07 11:05:59;;;;;;;2.35;1.63;;;9.80;99.90;;;;;;4971925;28;20193;-84
2022/12/07 11:08:46;;;;;;;1.97;1.13;;;9.90;99.90;;;;;;4988227;28;20664;-84
2022/12/07 11:11:33;;;;;;;3.17;1.40;;;10.00;99.90;;;;;;5005325;28;20061;-84
2022/12/07 11:14:24;;;;;;;1.92;1.30;;;10.20;99.90;;;;;;4998143;28;20156;-83
2022/12/07 11:17:06;;;;;;;4.00;1.73;;;10.50;99.90;;;;;;5010465;28;20674;-83
2022/12/07 11:19:50;;;;;;;3.38;1.70;;;10.70;99.90;;;;;;4990292;28;20181;-83
2022/12/07 11:22:36;;;;;;;3.37;1.60;;;11.00;99.90;;;;;;5008999;28;20386;-83
2022/12/07 11:25:08;;;;;;;2.90;1.73;;;11.20;99.90;;;;;;4964187;28;20037;-84
2022/12/07 11:27:48;;;;;;;4.15;1.83;;;11.30;99.90;;;;;;4967891;28;20037;-84
2022/12/07 11:30:22;;;;;;;3.17;1.80;;;11.50;99.90;;;;;;4959461;28;20229;-83
2022/12/07 11:33:17;;;;;;;3.72;2.25;;;11.60;99.90;;;;;;5005451;28;20256;-83
2022/12/07 11:36:01;;;;;;;3.87;2.20;;;11.70;99.90;;;;;;4977919;28;20060;-84
2022/12/07 11:38:43;;;;;;;3.40;1.90;;;11.80;99.90;;;;;;4992871;28;20037;-85
2022/12/07 11:41:12;;;;;;;3.78;2.05;;;12.00;99.90;;;;;;5008672;28;20022;-84
2022/12/07 11:43:56;;;;;;;4.03;2.17;;;12.10;99.90;;;;;;4991287;28;20185;-84
2022/12/07 11:46:27;;;;;;;5.40;2.25;;;12.20;99.90;;;;;;4993892;28;20029;-84
2022/12/07 11:49:07;;;;;;;3.47;2.20;;;12.30;99.90;;;;;;4995089;28;20252;-85
2022/12/07 11:51:37;;;;;;;3.35;2.30;;;12.20;99.90;;;;;;4952092;28;20030;-84
2022/12/07 11:54:12;;;;;;;3.70;2.13;;;12.10;99.90;;;;;;5000822;28;20151;-84
2022/12/07 11:56:38;;;;;;;3.85;2.40;;;12.00;99.90;;;;;;4995411;28;20036;-84
2022/12/07 11:59:17;;;;;;;3.67;2.27;;;11.90;99.90;;;;;;5004375;28;20021;-83
2022/12/07 12:02:18;;;;;;;4.40;2.30;;;11.80;99.90;;;;;;4996418;28;20259;-84
2022/12/07 12:04:54;;;;;;;3.00;2.10;;;11.70;99.90;;;;;;4989749;28;20139;-84
2022/12/07 12:07:26;;;;;;;4.53;2.33;;;11.60;99.90;;;;;;4990331;28;20618;-84
2022/12/07 12:10:02;;;;;;;3.77;2.00;;;11.50;99.90;;;;;;4954841;28;21857;-84
2022/12/07 12:12:58;;;;;;;3.17;2.15;;;11.50;99.90;;;;;;5015086;28;20113;-84
2022/12/07 12:15:52;;;;;;;2.92;1.63;;;11.40;99.90;;;;;;5004856;28;20018;-84
2022/12/07 12:18:31;;;;;;;3.33;1.83;;;11.40;99.90;;;;;;5002119;28;20034;-83
2022/12/07 12:21:04;;;;;;;4.43;1.95;;;11.30;99.90;;;;;;5005841;28;20442;-84
2022/12/07 12:23:50;;;;;;;3.93;2.10;;;11.30;99.90;;;;;;4960739;28;20124;-84
2022/12/07 12:26:21;;;;;;;3.00;2.05;;;11.30;99.90;;;;;;4995124;28;20034;-83
2022/12/07 12:28:58;;;;;;;3.78;2.20;;;11.40;99.90;;;;;;5001737;28;20026;-84
2022/12/07 12:31:27;;;;;;;3.20;1.95;;;11.50;99.90;;;;;;4999416;28;20077;-84
2022/12/07 12:33:56;;;;;;;3.75;2.30;;;11.60;99.90;;;;;;5015706;28;20022;-84
2022/12/07 12:36:35;;;;;;;4.60;2.30;;;11.70;99.90;;;;;;4996751;28;20108;-84
2022/12/07 12:39:10;;;;;;;3.30;1.92;;;11.80;99.90;;;;;;4991700;28;20209;-84
2022/12/07 12:42:05;;;;;;;3.47;2.00;;;11.80;99.90;;;;;;4979537;28;20869;-83
2022/12/07 12:44:22;;;;;;;3.20;1.98;;;11.70;99.90;;;;;;5003068;28;20057;-84
2022/12/07 12:46:57;;;;;;;3.22;1.90;;;11.70;99.90;;;;;;5002871;28;20382;-84
2022/12/07 12:49:22;;;;;;;3.17;1.90;;;11.70;99.90;;;;;;5002923;28;20109;-84
2022/12/07 12:52:14;;;;;;;3.38;1.75;;;11.60;99.90;;;;;;4996433;28;20417;-84
2022/12/07 12:54:58;;;;;;;3.42;1.77;;;11.50;99.90;;;;;;4962230;28;20034;-84
2022/12/07 12:57:31;;;;;;;3.03;1.70;;;11.40;99.90;;;;;;4975902;28;20033;-84
2022/12/07 13:00:03;;;;;;;3.22;1.75;;;11.40;99.90;;;;;;4992227;28;20034;-84
2022/12/07 13:02:33;;;;;;;3.40;1.73;;;11.30;99.90;;;;;;5005745;28;20017;-83
2022/12/07 13:05:09;;;;;;;2.78;1.40;;;11.30;99.90;;;;;;5002841;28;20053;-84
2022/12/07 13:07:47;;;;;;;3.15;1.60;;;11.20;99.90;;;;;;4998850;28;20065;-83
2022/12/07 13:10:30;;;;;;;2.13;1.50;;;11.20;99.90;;;;;;4997257;28;20394;-84
2022/12/07 13:13:12;;;;;;;2.00;1.20;;;11.20;99.90;;;;;;4933670;28;20288;-84
2022/12/07 13:15:45;;;;;;;2.38;1.35;;;11.20;99.90;;;;;;5000932;28;20457;-84
2022/12/07 13:18:23;;;;;;;2.85;1.20;;;11.10;99.90;;;;;;4987974;28;20040;-84
2022/12/07 13:20:51;;;;;;;4.38;1.65;;;11.10;99.90;;;;;;5008490;28;20247;-84